KRNO/RNO METAR and TAF weather

Enter ICAO airport designator
Station Type Date Time Source
KRNO METAR 2022/01/26 07:55 UTC NOAA

KRNO 260755Z 31003KT 10SM CLR M02/M09 A3025 RMK AO2 SLP249 T10221094 400891056


Station Type Date Time Source
KRNO Decoded METAR 2022/01/26 07:55 UTC NOAA

RENO/TAHOE INTERNATIONAL AIRPORT, NV, United States (KRNO) 39-29N 119-46W 1342M
Jan 26, 2022 - 02:55 AM EST / 2022.01.26 0755 UTC
Wind: from the NW (310 degrees) at 3 MPH (3 KT):0
Visibility: 10 mile(s):0
Sky conditions: clear
Temperature: 28.0 F (-2.2 C)
Dew Point: 15.1 F (-9.4 C)
Relative Humidity: 57%
Pressure (altimeter): 30.25 in. Hg (1024 hPa)
ob: KRNO 260755Z 31003KT 10SM CLR M02/M09 A3025 RMK AO2 SLP249 T10221094 400891056
cycle: 8

Station Type Date Time Source
KRNO TAF 2022/01/26 06:22 UTC NOAA

TAF KRNO 260520Z 2606/2706 VRB04KT P6SM SKC

Example: see airport list